Time;durP1;ratioP1;P1;durP2;ratioP2;P2;SDS_P1;SDS_P2;PMS_P1;PMS_P2;Temp;Humidity;BMP_temperature;BMP_pressure;BME280_temperature;BME280_humidity;BME280_pressure;Samples;Min_cycle;Max_cycle;Signal;HPM_P1;HPM_P2
2022/03/08 00:00:13;;;;;;;;;41.75;37.25;;;;;6.30;41.09;101001.19;6250699;22;45387;-87
2022/03/08 00:02:38;;;;;;;;;40.00;37.25;;;;;6.26;41.18;101006.31;6277772;22;45460;-87
2022/03/08 00:05:10;;;;;;;;;38.00;35.25;;;;;6.04;41.05;100971.22;6280555;22;45253;-87
2022/03/08 00:07:37;;;;;;;;;29.50;27.50;;;;;5.97;41.50;100963.91;6251602;22;46980;-87
2022/03/08 00:10:05;;;;;;;;;41.00;35.00;;;;;6.17;41.27;100985.75;6253615;22;45393;-87
2022/03/08 00:12:31;;;;;;;;;38.75;33.00;;;;;6.03;41.47;100971.16;6253738;22;45307;-87
2022/03/08 00:14:57;;;;;;;;;42.00;39.75;;;;;6.09;42.01;100988.09;6253628;22;45249;-87
2022/03/08 00:20:45;;;;;;;;;43.75;38.75;;;;;6.16;41.61;101003.34;6281722;22;45354;-87
2022/03/08 00:23:10;;;;;;;;;40.75;34.00;;;;;6.12;41.64;101001.44;6254143;22;45228;-87
2022/03/08 00:25:36;;;;;;;;;38.75;30.50;;;;;6.11;42.31;100999.63;6253401;22;45369;-87
2022/03/08 00:28:01;;;;;;;;;41.25;32.75;;;;;6.12;41.65;100998.81;6253189;22;48147;-87
2022/03/08 00:30:27;;;;;;;;;31.00;31.00;;;;;6.06;42.09;100995.00;6253258;22;45283;-87
2022/03/08 00:32:54;;;;;;;;;43.25;36.00;;;;;6.14;42.04;100994.47;6255177;22;45108;-86
2022/03/08 00:35:21;;;;;;;;;43.50;38.00;;;;;6.09;42.19;100997.78;6255783;22;45475;-86
2022/03/08 00:37:49;;;;;;;;;47.00;41.00;;;;;6.09;42.21;101000.41;6282225;22;46307;-87
2022/03/08 00:40:17;;;;;;;;;36.00;36.00;;;;;6.06;42.25;100995.00;6254211;22;45763;-86
2022/03/08 00:42:43;;;;;;;;;37.50;34.75;;;;;6.00;42.01;101003.63;6254564;22;45209;-86
2022/03/08 00:45:09;;;;;;;;;44.25;39.50;;;;;5.98;42.63;100986.84;6285385;22;45446;-86
2022/03/08 00:47:36;;;;;;;;;38.00;34.50;;;;;5.86;42.62;100959.94;6256522;22;46930;-87
2022/03/08 00:50:04;;;;;;;;;41.25;36.00;;;;;5.97;42.23;100985.03;6283561;22;45375;-87
2022/03/08 00:55:52;;;;;;;;;29.25;26.50;;;;;5.93;42.46;100993.66;6281996;22;44821;-87
2022/03/08 00:58:17;;;;;;;;;38.25;34.75;;;;;5.88;42.67;100982.00;6254301;22;48621;-87
2022/03/08 01:00:43;;;;;;;;;44.25;36.75;;;;;5.94;42.64;100996.34;6249579;22;45837;-87
2022/03/08 01:03:08;;;;;;;;;42.00;37.75;;;;;5.96;43.17;100997.34;6249650;22;45403;-87
2022/03/08 01:05:35;;;;;;;;;46.75;40.25;;;;;5.85;42.82;100980.16;6250804;22;45218;-87
2022/03/08 01:08:02;;;;;;;;;38.25;34.25;;;;;5.60;43.23;100938.78;6249679;22;47801;-87
2022/03/08 01:10:29;;;;;;;;;41.00;38.50;;;;;5.78;43.42;100976.41;6277822;22;45439;-87
2022/03/08 01:12:56;;;;;;;;;43.00;41.00;;;;;5.64;43.21;100956.53;6251427;22;45311;-87
2022/03/08 01:15:24;;;;;;;;;46.00;41.00;;;;;5.71;43.27;100950.63;6251272;22;45357;-88
2022/03/08 01:17:51;;;;;;;;;45.00;41.00;;;;;5.75;43.02;100967.47;6250510;22;46885;-87
2022/03/08 01:20:16;;;;;;;;;51.50;38.50;;;;;5.80;43.20;100987.91;6278486;22;45286;-87
2022/03/08 01:22:42;;;;;;;;;42.75;40.25;;;;;5.82;42.89;100985.34;6251128;22;45194;-87
2022/03/08 01:25:11;;;;;;;;;40.25;39.00;;;;;5.78;43.25;100968.47;6251224;22;45614;-87
2022/03/08 01:27:37;;;;;;;;;41.00;37.50;;;;;5.51;43.29;100941.06;6252001;22;47208;-87
2022/03/08 01:30:05;;;;;;;;;41.25;35.75;;;;;5.74;43.84;100966.56;6252404;22;45378;-87
2022/03/08 01:32:31;;;;;;;;;43.50;40.75;;;;;5.45;43.06;100940.81;6282849;22;45421;-87
2022/03/08 01:34:57;;;;;;;;;34.75;28.25;;;;;5.61;43.03;100966.94;6255049;22;45308;-87
2022/03/08 01:37:22;;;;;;;;;44.25;41.75;;;;;5.68;43.55;100981.28;6254660;22;47874;-87
2022/03/08 01:39:51;;;;;;;;;42.00;38.25;;;;;5.45;43.30;100923.25;6253382;22;45330;-87
2022/03/08 01:42:20;;;;;;;;;48.75;43.00;;;;;5.65;43.64;100968.84;6253095;22;45336;-87
2022/03/08 01:44:46;;;;;;;;;45.00;41.50;;;;;5.38;43.46;100948.50;6253301;22;45932;-87
2022/03/08 01:47:16;;;;;;;;;40.50;36.25;;;;;5.62;43.66;100976.66;6280561;22;45153;-87
2022/03/08 01:49:43;;;;;;;;;43.75;32.25;;;;;5.45;43.79;100956.66;6250269;22;45601;-86
2022/03/08 01:52:10;;;;;;;;;41.25;40.25;;;;;5.39;44.12;100958.22;6278418;22;45467;-86
2022/03/08 01:54:36;;;;;;;;;43.75;38.00;;;;;5.40;43.89;100970.56;6280922;22;45339;-86
2022/03/08 01:57:02;;;;;;;;;39.00;37.00;;;;;5.35;44.40;100960.66;6226498;22;46800;-86
2022/03/08 01:59:28;;;;;;;;;41.00;37.25;;;;;5.27;44.32;100946.28;6279963;22;45278;-86
2022/03/08 02:01:53;;;;;;;;;40.75;40.00;;;;;5.33;44.51;100952.72;6256009;22;45266;-83
2022/03/08 02:04:20;;;;;;;;;40.00;34.75;;;;;5.41;44.13;100961.84;6253076;22;45337;-83
2022/03/08 02:06:45;;;;;;;;;42.50;37.50;;;;;5.40;44.35;100965.28;6256548;22;47025;-84
2022/03/08 02:09:12;;;;;;;;;43.50;39.25;;;;;5.45;44.30;100960.19;6255324;22;45050;-83
2022/03/08 02:11:37;;;;;;;;;45.25;40.25;;;;;5.34;43.76;100951.88;6254012;22;45608;-83
2022/03/08 02:14:03;;;;;;;;;37.50;33.50;;;;;5.37;44.38;100954.63;6255473;22;45447;-84
2022/03/08 02:16:29;;;;;;;;;36.00;30.75;;;;;5.41;44.31;100955.63;6257044;22;47965;-84
2022/03/08 02:18:55;;;;;;;;;41.75;38.25;;;;;5.35;44.34;100953.69;6285866;22;45620;-84
2022/03/08 02:21:20;;;;;;;;;38.50;35.00;;;;;5.27;44.01;100941.94;6255883;22;45719;-84
2022/03/08 02:23:46;;;;;;;;;48.25;40.50;;;;;5.34;44.73;100948.34;6256045;22;45530;-84
2022/03/08 02:26:11;;;;;;;;;46.50;43.25;;;;;5.35;44.52;100951.03;6255224;22;47214;-85
2022/03/08 02:28:39;;;;;;;;;40.50;31.25;;;;;5.41;44.70;100947.72;6257145;22;45360;-85
2022/03/08 02:31:05;;;;;;;;;46.00;40.25;;;;;5.32;44.31;100944.75;6255660;22;45373;-84
2022/03/08 02:33:30;;;;;;;;;42.50;35.25;;;;;5.20;44.64;100924.06;6283062;22;45318;-84
2022/03/08 02:35:56;;;;;;;;;39.50;36.50;;;;;5.32;44.61;100936.84;6283188;22;45641;-85
2022/03/08 02:38:21;;;;;;;;;36.75;28.25;;;;;5.11;44.43;100908.81;6255885;22;45401;-85
2022/03/08 02:40:47;;;;;;;;;34.50;32.00;;;;;5.29;43.93;100940.25;6259454;22;45370;-84
2022/03/08 02:43:13;;;;;;;;;44.25;41.50;;;;;5.23;44.80;100921.53;6258589;22;45628;-85
2022/03/08 02:45:39;;;;;;;;;36.75;33.75;;;;;5.22;44.52;100925.03;6259024;22;48171;-85
2022/03/08 02:48:06;;;;;;;;;39.75;37.25;;;;;5.21;44.20;100917.94;6284865;22;45303;-84
2022/03/08 02:50:32;;;;;;;;;48.25;36.75;;;;;5.22;44.72;100925.03;6258160;22;45682;-84
2022/03/08 02:52:59;;;;;;;;;39.00;32.75;;;;;5.26;45.10;100919.03;6285178;22;45319;-84
2022/03/08 02:55:27;;;;;;;;;41.25;34.50;;;;;5.27;44.45;100919.94;6283645;22;45700;-84
2022/03/08 02:57:54;;;;;;;;;28.50;24.75;;;;;5.16;45.17;100912.50;6256247;22;45415;-85
2022/03/08 03:00:22;;;;;;;;;43.00;37.75;;;;;5.16;45.23;100908.97;6255472;22;45363;-84
2022/03/08 03:02:48;;;;;;;;;42.25;37.25;;;;;5.16;44.93;100919.53;6256316;22;45394;-84
2022/03/08 03:05:14;;;;;;;;;43.25;36.25;;;;;5.16;45.33;100917.78;6283767;22;45365;-85
2022/03/08 03:07:40;;;;;;;;;45.75;40.25;;;;;5.12;45.27;100910.59;6257189;22;45439;-84
2022/03/08 03:10:14;;;;;;;;;43.75;37.75;;;;;5.25;45.61;100914.63;6286525;22;45360;-84
2022/03/08 03:12:40;;;;;;;;;39.50;34.75;;;;;5.12;44.89;100899.16;6286627;22;45422;-85
2022/03/08 03:15:08;;;;;;;;;50.00;41.50;;;;;5.26;45.47;100908.50;6257547;22;47106;-84
2022/03/08 03:17:34;;;;;;;;;30.75;28.75;;;;;5.17;45.33;100908.13;6284998;22;45326;-85
2022/03/08 03:19:59;;;;;;;;;32.00;29.75;;;;;5.16;45.33;100901.06;6256923;22;45351;-85
2022/03/08 03:22:25;;;;;;;;;50.25;41.25;;;;;5.11;45.53;100893.00;6257121;22;45680;-85
2022/03/08 03:24:50;;;;;;;;;36.25;32.50;;;;;5.16;45.06;100895.78;6285032;22;45939;-85
2022/03/08 03:27:16;;;;;;;;;50.00;42.25;;;;;5.15;44.94;100893.97;6257261;22;45357;-84
2022/03/08 03:29:41;;;;;;;;;44.25;39.50;;;;;5.12;45.79;100878.94;6259789;22;45401;-85
2022/03/08 03:32:07;;;;;;;;;40.00;37.25;;;;;5.18;45.37;100886.19;6287293;22;45228;-84
2022/03/08 03:34:33;;;;;;;;;32.25;29.25;;;;;5.12;45.42;100894.78;6287091;22;45330;-84
2022/03/08 03:36:58;;;;;;;;;40.75;36.75;;;;;5.13;45.49;100882.47;6258063;22;45564;-85
2022/03/08 03:39:25;;;;;;;;;42.50;36.25;;;;;5.16;45.34;100879.97;6286346;22;45330;-85
2022/03/08 03:41:50;;;;;;;;;39.75;36.00;;;;;5.16;45.88;100885.25;6258286;22;45461;-85
2022/03/08 03:44:17;;;;;;;;;49.00;40.50;;;;;5.23;45.72;100874.06;6258292;22;45450;-84
2022/03/08 03:46:49;;;;;;;;;45.50;39.25;;;;;5.29;45.03;100871.69;6285090;22;44815;-84
2022/03/08 03:49:14;;;;;;;;;50.25;40.50;;;;;5.09;45.75;100864.75;6254710;22;45512;-84
2022/03/08 03:51:40;;;;;;;;;40.00;37.00;;;;;5.10;45.60;100867.44;6255080;22;45382;-84
2022/03/08 03:54:06;;;;;;;;;40.50;37.25;;;;;5.15;45.68;100887.00;6256148;22;46787;-83
2022/03/08 03:56:31;;;;;;;;;32.50;32.50;;;;;5.09;45.83;100872.66;6284209;22;45601;-82
2022/03/08 03:58:56;;;;;;;;;40.50;37.75;;;;;5.11;45.86;100876.25;6285568;22;45377;-84
2022/03/08 04:01:22;;;;;;;;;40.50;33.25;;;;;5.15;45.30;100888.72;6257235;22;45491;-84
2022/03/08 04:04:06;;;;;;;;;44.25;40.00;;;;;5.21;45.71;100857.28;6255694;22;47277;-84
2022/03/08 04:06:32;;;;;;;;;44.25;43.25;;;;;5.04;45.95;100866.31;6258811;22;45831;-84
2022/03/08 04:08:59;;;;;;;;;43.50;37.00;;;;;5.08;45.58;100866.50;6258259;22;45343;-84
2022/03/08 04:11:25;;;;;;;;;41.25;39.50;;;;;5.05;46.02;100870.75;6255613;22;45372;-85
2022/03/08 04:13:50;;;;;;;;;45.00;37.50;;;;;4.98;46.16;100867.88;6254060;22;47088;-84
2022/03/08 04:16:16;;;;;;;;;41.25;37.25;;;;;4.97;46.01;100867.84;6255154;22;45360;-84
2022/03/08 04:18:41;;;;;;;;;38.25;35.75;;;;;5.01;46.07;100873.28;6230831;22;45354;-84
2022/03/08 04:21:07;;;;;;;;;47.75;38.00;;;;;4.93;46.10;100864.19;6256085;22;45464;-82
2022/03/08 04:23:32;;;;;;;;;33.50;30.00;;;;;4.98;46.16;100881.06;6255914;22;46598;-83
2022/03/08 04:25:58;;;;;;;;;42.25;37.00;;;;;4.94;45.80;100872.97;6258931;22;45614;-84
2022/03/08 04:28:23;;;;;;;;;53.00;42.50;;;;;4.78;46.30;100846.00;6285311;22;45425;-84
2022/03/08 04:30:49;;;;;;;;;49.00;42.50;;;;;4.85;46.51;100867.34;6231642;22;45504;-83
2022/03/08 04:33:15;;;;;;;;;49.00;42.00;;;;;4.73;46.79;100852.84;6257486;22;46719;-84
2022/03/08 04:35:40;;;;;;;;;40.00;34.50;;;;;4.87;46.37;100871.84;6257326;22;45475;-83
2022/03/08 04:38:06;;;;;;;;;44.00;38.50;;;;;4.85;46.35;100875.25;6257846;22;45480;-83
2022/03/08 04:40:33;;;;;;;;;51.50;44.25;;;;;4.86;46.51;100864.75;6285430;22;45299;-84
2022/03/08 04:42:58;;;;;;;;;48.25;43.75;;;;;4.77;46.42;100859.16;6258739;22;47955;-84
2022/03/08 04:45:25;;;;;;;;;40.50;39.50;;;;;4.79;46.84;100862.75;6258479;22;45287;-85
2022/03/08 04:47:50;;;;;;;;;46.25;39.00;;;;;4.78;46.80;100863.56;6258667;22;45271;-84
2022/03/08 04:50:16;;;;;;;;;38.00;34.25;;;;;4.77;46.92;100862.69;6257777;22;45248;-85
2022/03/08 04:52:47;;;;;;;;;48.50;40.00;;;;;4.87;46.18;100857.75;6284461;22;45413;-85
2022/03/08 04:55:13;;;;;;;;;24.25;19.25;;;;;4.78;47.09;100872.38;6257868;22;45822;-84
2022/03/08 04:57:39;;;;;;;;;40.75;35.75;;;;;4.71;47.01;100864.19;6256184;22;45433;-84
2022/03/08 05:00:07;;;;;;;;;38.50;32.75;;;;;4.76;46.79;100846.81;6256732;22;45599;-84
2022/03/08 05:02:33;;;;;;;;;42.75;38.75;;;;;4.70;46.64;100863.25;6285719;22;45020;-84
2022/03/08 05:04:58;;;;;;;;;40.75;35.75;;;;;4.68;47.35;100864.03;6259315;22;45292;-85
2022/03/08 05:07:24;;;;;;;;;45.75;44.25;;;;;4.68;47.38;100864.03;6258162;22;45217;-84
2022/03/08 05:09:49;;;;;;;;;46.25;41.50;;;;;4.66;46.92;100866.59;6257398;22;45434;-85
2022/03/08 05:12:15;;;;;;;;;42.00;38.50;;;;;4.60;46.89;100856.75;6258157;22;47098;-85
2022/03/08 05:14:41;;;;;;;;;51.25;41.50;;;;;4.65;47.18;100866.56;6259686;22;45491;-84
2022/03/08 05:17:07;;;;;;;;;41.25;39.00;;;;;4.65;46.83;100858.66;6259359;22;45287;-84
2022/03/08 05:19:32;;;;;;;;;44.50;35.50;;;;;4.63;47.04;100858.59;6259024;22;44899;-84
2022/03/08 05:21:58;;;;;;;;;29.75;28.75;;;;;4.40;46.99;100812.88;6259561;22;48164;-83
2022/03/08 05:24:23;;;;;;;;;48.00;41.25;;;;;4.55;47.16;100837.22;6287734;22;45318;-84
2022/03/08 05:26:49;;;;;;;;;44.25;42.75;;;;;4.58;47.32;100847.84;6257871;22;45490;-84
2022/03/08 05:29:14;;;;;;;;;45.50;41.00;;;;;4.60;47.74;100859.38;6255939;22;45335;-84
2022/03/08 05:31:40;;;;;;;;;42.50;39.50;;;;;4.53;47.30;100838.91;6256052;22;46879;-84
2022/03/08 05:37:48;;;;;;;;;48.25;42.25;;;;;4.66;47.11;100849.91;6282251;22;45422;-84
2022/03/08 05:40:14;;;;;;;;;40.50;35.50;;;;;4.54;47.38;100837.16;6283480;22;45438;-83
2022/03/08 05:42:39;;;;;;;;;60.50;45.25;;;;;4.49;47.25;100836.09;6282112;22;45306;-84
2022/03/08 05:45:07;;;;;;;;;33.50;28.00;;;;;4.66;47.56;100860.44;6254982;22;45267;-83
2022/03/08 05:47:33;;;;;;;;;47.25;42.25;;;;;4.47;47.65;100843.91;6256499;22;44668;-84
2022/03/08 05:49:59;;;;;;;;;41.00;36.75;;;;;4.51;47.65;100840.56;6256525;22;45405;-84
2022/03/08 05:52:24;;;;;;;;;43.75;39.50;;;;;4.48;47.78;100852.72;6256255;22;47076;-84
2022/03/08 05:54:50;;;;;;;;;50.00;41.50;;;;;4.51;48.10;100856.38;6259156;22;45472;-84
2022/03/08 05:57:15;;;;;;;;;46.75;40.50;;;;;4.51;47.75;100861.63;6286754;22;45293;-85
2022/03/08 05:59:41;;;;;;;;;42.75;38.75;;;;;4.51;47.35;100856.38;6287644;22;45308;-83
2022/03/08 06:02:06;;;;;;;;;45.00;40.25;;;;;4.39;47.75;100834.81;6259631;22;46706;-83
2022/03/08 06:04:44;;;;;;;;;48.00;38.00;;;;;4.67;47.70;100863.16;6249448;22;45532;-84
2022/03/08 06:07:10;;;;;;;;;42.75;39.50;;;;;4.54;47.72;100867.00;6229302;22;45437;-84
2022/03/08 06:09:36;;;;;;;;;45.00;34.75;;;;;4.44;47.88;100848.16;6256412;22;45204;-83
2022/03/08 06:12:02;;;;;;;;;43.50;41.00;;;;;4.51;47.99;100869.53;6227555;22;47235;-83
2022/03/08 06:14:29;;;;;;;;;50.00;39.00;;;;;4.55;47.58;100868.81;6256234;22;45338;-84
2022/03/08 06:16:54;;;;;;;;;43.00;39.25;;;;;4.52;48.18;100863.41;6227486;22;45735;-84
2022/03/08 06:19:20;;;;;;;;;41.50;33.50;;;;;4.58;47.81;100873.31;6226967;22;45652;-84
2022/03/08 06:21:46;;;;;;;;;45.50;41.50;;;;;4.49;47.65;100863.31;6225020;22;47373;-84
2022/03/08 06:24:12;;;;;;;;;46.50;41.25;;;;;4.41;47.87;100851.56;6227046;22;45315;-84
2022/03/08 06:26:38;;;;;;;;;43.50;38.50;;;;;4.54;47.48;100866.13;6253597;22;45338;-83
2022/03/08 06:29:04;;;;;;;;;52.00;44.25;;;;;4.56;47.85;100875.88;6224853;22;45473;-84
2022/03/08 06:31:31;;;;;;;;;52.75;43.25;;;;;4.58;48.10;100862.78;6223314;22;47151;-84
2022/03/08 06:33:57;;;;;;;;;50.25;44.50;;;;;4.53;48.21;100865.22;6225615;22;45429;-84
2022/03/08 06:36:22;;;;;;;;;43.00;38.25;;;;;4.39;47.58;100851.50;6224474;22;45735;-84
2022/03/08 06:38:48;;;;;;;;;44.00;38.50;;;;;4.57;48.18;100866.25;6253890;22;45403;-84
2022/03/08 06:41:13;;;;;;;;;47.25;39.25;;;;;4.47;47.58;100849.19;6223967;22;46146;-84
2022/03/08 06:43:39;;;;;;;;;46.50;42.75;;;;;4.63;47.99;100869.13;6225306;22;45287;-83
2022/03/08 06:46:05;;;;;;;;;47.50;44.50;;;;;4.58;47.90;100857.50;6226106;22;45790;-84
2022/03/08 06:48:30;;;;;;;;;39.50;35.75;;;;;4.75;48.09;100887.19;6253686;22;45331;-84
2022/03/08 06:50:57;;;;;;;;;46.75;42.50;;;;;4.80;47.97;100891.75;6225298;22;45286;-84
2022/03/08 06:53:24;;;;;;;;;30.25;22.25;;;;;4.91;47.92;100886.94;6225061;22;45699;-84
2022/03/08 06:55:49;;;;;;;;;47.25;42.00;;;;;4.81;47.62;100876.88;6224817;22;45660;-84
2022/03/08 06:58:15;;;;;;;;;41.75;34.25;;;;;4.86;47.52;100880.56;6251706;22;45721;-85
2022/03/08 07:00:41;;;;;;;;;53.25;46.00;;;;;4.84;48.13;100876.97;6252847;22;46098;-84
2022/03/08 07:03:06;;;;;;;;;45.75;43.50;;;;;4.84;48.29;100873.47;6227513;22;45301;-85
2022/03/08 07:06:20;;;;;;;;;48.75;41.00;;;;;5.06;47.67;100875.19;6238178;22;45345;-85
2022/03/08 07:08:50;;;;;;;;;51.75;42.25;;;;;4.67;47.49;100825.38;6283379;22;45922;-85
2022/03/08 07:12:12;;;;;;;;;47.25;40.50;;;;;5.14;47.28;100879.91;6258249;22;47103;-85
2022/03/08 07:14:53;;;;;;;;;45.00;40.75;;;;;4.96;47.68;100856.38;6255607;22;45406;-85
2022/03/08 07:17:38;;;;;;;;;50.50;43.25;;;;;5.21;47.35;100873.13;6261526;22;45416;-86
2022/03/08 07:20:10;;;;;;;;;43.50;35.75;;;;;5.16;47.11;100869.44;6260208;22;45402;-86
2022/03/08 07:23:49;;;;;;;;;44.75;39.25;;;;;5.30;46.91;100868.22;6259960;22;46276;-86
2022/03/08 07:26:29;;;;;;;;;51.25;44.50;;;;;5.32;47.35;100882.34;6138202;23;45364;-85
2022/03/08 07:32:27;;;;;;;;;47.00;43.00;;;;;5.13;46.72;100841.22;6159505;23;45395;-86
2022/03/08 07:38:55;;;;;;;;;51.50;44.25;;;;;5.42;46.47;100873.03;6164489;23;45384;-85
2022/03/08 07:41:35;;;;;;;;;44.00;41.00;;;;;5.39;46.54;100892.31;6154735;22;45532;-86
2022/03/08 07:52:27;;;;;;;;;48.50;43.25;;;;;5.85;45.75;100915.91;6082893;23;44845;-86
2022/03/08 10:25:15;;;;;;;;;54.75;45.50;;;;;9.30;40.97;100866.72;6250069;22;45919;-85
2022/03/08 10:27:56;;;;;;;;;60.75;46.25;;;;;9.28;41.16;100857.84;6271581;22;45146;-85
2022/03/08 10:30:56;;;;;;;;;57.50;47.25;;;;;9.11;41.36;100809.72;6323931;22;45351;-86
2022/03/08 10:41:45;;;;;;;;;;;;;;;;;;;;;
2022/03/08 10:51:18;;;;;;;;;53.25;45.25;;;;;9.88;39.84;100821.84;6077088;23;45411;-85
2022/03/08 11:01:46;;;;;;;;;55.00;44.00;;;;;10.29;40.15;100828.75;5992593;23;45341;-85
2022/03/08 11:05:07;;;;;;;;;57.00;46.50;;;;;10.27;39.78;100798.59;6051643;23;44770;-84
2022/03/08 11:12:10;;;;;;;;;62.75;49.75;;;;;10.63;39.06;100829.31;6117290;23;46302;-88
2022/03/08 11:14:15;;;;;;;;;62.25;49.25;;;;;10.52;39.36;100813.19;6155617;23;45468;-85
2022/03/08 11:16:50;;;;;;;;;62.50;48.50;;;;;10.63;39.70;100802.72;6177558;23;45441;-86
2022/03/08 11:22:45;;;;;;;;;60.50;48.50;;;;;10.68;38.94;100774.41;6197674;23;45495;-86
2022/03/08 11:25:46;;;;;;;;;62.75;49.75;;;;;11.02;39.01;100815.69;6196101;22;44990;-86
2022/03/08 11:28:22;;;;;;;;;65.50;54.00;;;;;10.85;38.08;100788.84;6196743;22;45321;-85
2022/03/08 11:30:54;;;;;;;;;58.50;47.75;;;;;11.08;38.34;100822.84;6171665;23;45277;-86
2022/03/08 11:34:12;;;;;;;;;58.25;47.00;;;;;11.17;38.10;100820.31;6199787;22;45482;-86
2022/03/08 11:37:07;;;;;;;;;61.50;48.25;;;;;11.20;37.85;100823.00;6173653;22;45076;-86
2022/03/08 11:45:55;;;;;;;;;64.00;52.25;;;;;11.31;38.21;100813.41;6266875;22;45135;-86
2022/03/08 11:52:19;;;;;;;;;50.25;43.25;;;;;11.63;37.67;100802.19;6291394;22;45798;-87
2022/03/08 12:02:25;;;;;;;;;65.00;46.25;;;;;11.60;37.46;100762.22;6322177;22;45430;-87
2022/03/08 12:04:54;;;;;;;;;55.50;44.75;;;;;11.80;36.80;100784.63;6165209;23;45528;-86
2022/03/08 12:07:32;;;;;;;;;59.25;48.00;;;;;11.92;36.75;100797.22;6167500;23;44894;-89
2022/03/08 12:10:49;;;;;;;;;63.50;49.75;;;;;12.03;36.60;100802.63;6165051;23;46920;-86
2022/03/08 12:13:50;;;;;;;;;62.50;49.75;;;;;11.99;36.62;100796.38;6063863;23;45335;-87
2022/03/08 12:16:34;;;;;;;;;61.25;47.50;;;;;11.81;37.52;100746.47;6020149;23;45326;-85
2022/03/08 12:20:04;;;;;;;;;56.75;47.00;;;;;12.01;36.85;100772.41;6046767;23;45404;-86
2022/03/08 12:26:34;;;;;;;;;56.50;43.25;;;;;12.36;36.62;100787.78;6048391;23;45421;-86
2022/03/08 12:29:36;;;;;;;;;54.50;42.50;;;;;12.46;36.27;100789.63;6135329;22;45664;-85
2022/03/08 12:32:15;;;;;;;;;40.00;34.25;;;;;12.33;37.04;100782.44;6294597;22;44726;-86
2022/03/08 12:35:42;;;;;;;;;58.25;49.00;;;;;12.30;36.77;100743.31;6294921;22;45210;-87
2022/03/08 12:38:53;;;;;;;;;56.50;45.50;;;;;12.49;36.66;100754.13;6113719;23;45303;-86
2022/03/08 12:41:36;;;;;;;;;57.25;46.00;;;;;12.57;35.66;100769.28;6211568;22;45389;-85
2022/03/08 12:44:08;;;;;;;;;47.00;37.50;;;;;12.66;35.61;100803.13;6293640;22;45388;-84
2022/03/08 12:46:38;;;;;;;;;54.00;42.00;;;;;12.50;35.92;100750.53;6322211;22;45180;-85
2022/03/08 12:49:07;;;;;;;;;54.50;45.00;;;;;12.53;36.18;100750.59;6295575;22;45361;-85
2022/03/08 12:51:37;;;;;;;;;59.00;45.50;;;;;12.61;36.32;100771.06;6293809;22;44705;-84
2022/03/08 12:54:03;;;;;;;;;57.25;43.50;;;;;12.74;36.69;100781.81;6292532;22;45504;-85
2022/03/08 12:56:32;;;;;;;;;43.25;39.00;;;;;12.78;36.67;100775.63;6267999;22;45301;-85
2022/03/08 12:59:06;;;;;;;;;53.00;42.75;;;;;12.88;36.08;100757.88;6294368;22;45161;-85
2022/03/08 13:01:41;;;;;;;;;56.75;44.75;;;;;12.94;36.61;100780.16;6295044;22;45258;-85
2022/03/08 13:04:29;;;;;;;;;55.25;42.00;;;;;13.18;35.45;100778.47;6322684;22;45225;-86
2022/03/08 13:07:28;;;;;;;;;59.00;46.25;;;;;13.01;35.39;100744.59;6298052;22;45479;-86
2022/03/08 13:10:14;;;;;;;;;56.00;42.75;;;;;13.08;34.95;100741.94;6294705;22;45444;-86
2022/03/08 13:13:09;;;;;;;;;55.00;42.00;;;;;13.19;35.65;100753.56;6295533;22;45283;-86
2022/03/08 13:19:22;;;;;;;;;45.25;39.75;;;;;13.33;35.26;100778.59;6323369;22;45419;-85
2022/03/08 13:22:32;;;;;;;;;58.75;46.00;;;;;13.40;34.62;100771.47;6318361;22;45325;-85
2022/03/08 13:25:23;;;;;;;;;52.00;38.75;;;;;13.16;33.70;100738.41;6293094;22;44842;-85
2022/03/08 13:28:27;;;;;;;;;45.75;39.75;;;;;13.48;33.77;100769.72;6290419;22;44903;-85
2022/03/08 13:31:28;;;;;;;;;;;;;;;;;;;;;
2022/03/08 13:34:22;;;;;;;;;52.67;42.33;;;;;13.38;33.96;100726.03;6318547;22;72220;-83
2022/03/08 13:37:46;;;;;;;;;;;;;;;;;;;;;
2022/03/08 13:40:47;;;;;;;;;46.75;40.50;;;;;13.76;34.03;100778.69;6164707;23;65726;-85
2022/03/08 13:43:26;;;;;;;;;;;;;;;;;;;;;
2022/03/08 13:45:56;;;;;;;;;43.00;37.75;;;;;13.65;34.15;100769.75;6075133;23;71995;-84
2022/03/08 13:48:34;;;;;;;;;44.33;38.67;;;;;13.71;33.40;100739.47;6077745;23;44829;-85
2022/03/08 13:51:09;;;;;;;;;49.00;38.67;;;;;13.86;34.24;100778.72;6076490;23;45383;-84
2022/03/08 13:53:38;;;;;;;;;45.00;38.33;;;;;13.71;34.40;100726.97;6074636;23;45955;-84
2022/03/08 13:56:12;;;;;;;;;52.00;41.50;;;;;13.74;33.40;100710.09;6074179;23;44919;-84
2022/03/08 13:58:45;;;;;;;;;46.50;38.00;;;;;13.73;33.15;100718.97;6074964;23;46012;-84
2022/03/08 14:01:23;;;;;;;;;44.33;40.67;;;;;13.87;33.32;100721.66;6050215;23;45460;-85
2022/03/08 14:03:57;;;;;;;;;37.00;33.50;;;;;14.08;32.26;100747.50;6073454;23;45373;-85
2022/03/08 14:06:26;;;;;;;;;37.00;31.00;;;;;13.99;34.19;100733.22;6074270;23;45991;-84
2022/03/08 14:09:02;;;;;;;;;50.33;37.67;;;;;14.21;32.42;100773.34;6078318;23;45685;-85
2022/03/08 14:11:28;;;;;;;;;38.33;33.33;;;;;14.19;31.43;100777.81;6140427;23;45326;-86
2022/03/08 14:14:01;;;;;;;;;43.67;35.00;;;;;14.20;32.17;100759.09;6163941;23;47945;-86
2022/03/08 14:19:52;;;;;;;;;35.33;29.33;;;;;14.13;31.76;100740.38;6210189;22;45484;-83
2022/03/08 14:22:21;;;;;;;;;48.00;38.33;;;;;14.46;31.27;100776.00;6292826;22;45338;-81
2022/03/08 14:25:03;;;;;;;;;47.00;38.00;;;;;14.36;31.37;100756.38;6292233;22;45436;-82
2022/03/08 14:27:30;;;;;;;;;42.00;37.67;;;;;14.18;32.07;100755.53;6293653;22;45526;-82
2022/03/08 14:30:03;;;;;;;;;51.00;41.00;;;;;14.44;31.85;100777.78;6318762;22;44928;-82
2022/03/08 14:32:34;;;;;;;;;49.33;39.67;;;;;14.52;32.82;100782.25;6320813;22;45774;-82
2022/03/08 14:35:15;;;;;;;;;47.00;36.67;;;;;14.53;31.91;100777.78;6321809;22;45325;-82
2022/03/08 14:37:42;;;;;;;;;39.67;36.33;;;;;14.56;31.70;100786.75;6291148;22;45350;-82
2022/03/08 14:40:10;;;;;;;;;43.00;37.67;;;;;14.54;31.82;100780.47;6290181;22;45679;-81
2022/03/08 14:42:43;;;;;;;;;40.00;35.67;;;;;14.51;30.82;100785.81;6290930;22;45377;-84
2022/03/08 14:45:11;;;;;;;;;43.33;38.00;;;;;14.60;31.17;100780.50;6319677;22;46510;-83
2022/03/08 14:47:41;;;;;;;;;40.00;36.00;;;;;14.63;31.89;100779.59;6322357;22;45381;-82
2022/03/08 14:50:09;;;;;;;;;44.33;38.33;;;;;14.63;31.87;100778.72;6297010;22;45357;-83
2022/03/08 14:52:36;;;;;;;;;42.33;38.00;;;;;14.65;31.74;100788.50;6293536;22;45386;-83
2022/03/08 14:55:10;;;;;;;;;47.00;38.33;;;;;14.70;31.83;100788.50;6293339;22;46057;-83
2022/03/08 14:57:36;;;;;;;;;40.00;32.67;;;;;14.62;31.93;100782.25;6268506;22;45292;-82
2022/03/08 15:00:06;;;;;;;;;39.00;37.00;;;;;14.67;31.72;100783.16;6294013;22;44830;-81
2022/03/08 15:02:32;;;;;;;;;41.67;35.67;;;;;14.55;32.07;100771.53;6266618;22;45327;-81
2022/03/08 15:04:58;;;;;;;;;51.33;41.00;;;;;14.52;32.30;100782.25;6322489;22;46096;-82
2022/03/08 15:07:27;;;;;;;;;54.67;41.67;;;;;14.52;32.65;100787.63;6293675;22;45300;-81
2022/03/08 15:09:53;;;;;;;;;51.00;41.50;;;;;14.51;32.34;100783.13;6294036;22;44811;-82
2022/03/08 15:12:22;;;;;;;;;50.00;41.25;;;;;14.49;32.80;100792.97;6296486;22;44844;-83
2022/03/08 15:15:37;;;;;;;;;42.25;36.25;;;;;14.75;32.70;100789.38;6269630;22;46673;-82
2022/03/08 15:18:04;;;;;;;;;54.00;41.00;;;;;14.56;32.65;100785.84;6291994;22;45362;-83
2022/03/08 15:20:29;;;;;;;;;53.00;41.33;;;;;14.56;32.75;100794.78;6320715;22;45673;-82
2022/03/08 15:22:55;;;;;;;;;49.00;42.67;;;;;14.55;32.85;100792.94;6321510;22;45216;-83
2022/03/08 15:25:20;;;;;;;;;51.00;41.00;;;;;14.52;32.90;100782.25;6316977;22;46700;-82
2022/03/08 15:28:35;;;;;;;;;51.75;44.50;;;;;14.79;32.84;100800.06;6293803;22;45470;-83
2022/03/08 15:31:01;;;;;;;;;52.67;42.67;;;;;14.62;33.34;100785.81;6292277;22;45329;-83
2022/03/08 15:33:27;;;;;;;;;52.33;42.33;;;;;14.64;33.53;100784.03;6266089;22;45380;-83
2022/03/08 15:35:54;;;;;;;;;51.67;44.00;;;;;14.69;33.19;100773.34;6292211;22;46712;-83